Aérodrome :
LOGIN :

S'inscrire | Disclaimer

   EN    FR    IT 

 










Légende :    VFR   VFR Marginal   IFR   IFR Intensif   IFR Très Intensif
Visi : 
Plafond : 
>= 8 km
>= 3000ft
5 à 8 km
1000 à 3000 ft
1500m à 5 km
500 à 1000 ft
800 à 1500m
200 à 500 ft
< 800m
< 200 ft
Symboles :   Orages  Brouillard  Fortes neiges  Fortes précipitations  Vent > 20 kt
SIGMETs :   Divers  Orages  Givrage  Turbulence  Onde Orograph.  Cendres Volcan.







- Altitude de l'aérodrome : 1367 ft
- Code IATA : FDH


EDNY - Friedrichshafen

DERNIER METAR :
  • 180650Z 19005KT 1700 -SN OVC005 M01/M01 Q1022

METARs EXPIRÉS :
  • 180620Z 21008KT 2200 -SN FEW005 BKN008 OVC014 M01/M02 Q1022
  • 180550Z 24011KT 4500 -SN SCT013 SCT020 OVC028 M00/M02 Q1022
  • 180520Z 23012KT 9999 FEW027 BKN045 OVC052 01/M04 Q1022
  • 180450Z 22010KT 9999 BKN028 OVC096 01/M04 Q1023
  • 180420Z AUTO 21007KT 9999 SCT031 OVC098 01/M04 Q1023

TAF TAF EDNY
Valide du 18 à 06h jusqu'au 19 à 06h UTC


180500Z 1806/1906 22007KT 9999 SCT030 BKN070
TEMPO 1807/1814 2500 -SN BKN008
BECMG 1814/1816 VRB03KT
BECMG 1821/1822 4000 BR BKN010
Pas de NOTAMs connus pour ce terrain.



MET'MAP, la Météo Aéronautique d'un coup d'oeil ! - Copyright ORBIFLY Décembre 2007 - Disclaimer

ORBIFLY MET'MAP TEAM :

Programmation & Développement : Alexandra Zaïnal
Conception & Développement : Baudouin d'Aumeries
Co-Programmation & Développement : Marc-Olivier Méhu
Soutien technique & logistique : Manuel Goepfert

Contact : metmap@orbifly.com




SOURCES & CREDITS :

   NOAA